Time;durP1;ratioP1;P1;durP2;ratioP2;P2;SDS_P1;SDS_P2;PMS_P1;PMS_P2;Temp;Humidity;BMP_temperature;BMP_pressure;BME280_temperature;BME280_humidity;BME280_pressure;Samples;Min_cycle;Max_cycle;Signal;HPM_P1;HPM_P2
2022/02/16 00:01:51;;;;;;;7.38;5.10;;;2.90;99.90;;;;;;5033183;28;20160;-76
2022/02/16 00:04:16;;;;;;;7.20;5.20;;;3.00;99.90;;;;;;5031807;28;20044;-76
2022/02/16 00:06:42;;;;;;;6.55;4.63;;;3.00;99.90;;;;;;5031127;28;20022;-76
2022/02/16 00:09:07;;;;;;;6.18;4.30;;;3.00;99.90;;;;;;5026518;28;20022;-76
2022/02/16 00:11:33;;;;;;;6.35;4.93;;;3.10;99.90;;;;;;5031361;28;20403;-76
2022/02/16 00:13:58;;;;;;;6.00;4.68;;;3.10;99.90;;;;;;5025071;28;20399;-76
2022/02/16 00:16:24;;;;;;;6.53;4.60;;;3.10;99.90;;;;;;5027733;28;20037;-76
2022/02/16 00:18:50;;;;;;;5.47;4.63;;;3.10;99.90;;;;;;5028455;28;20048;-76
2022/02/16 00:21:16;;;;;;;5.25;4.75;;;3.10;99.90;;;;;;5029483;28;20029;-76
2022/02/16 00:23:42;;;;;;;6.00;4.45;;;3.10;99.90;;;;;;5026505;28;20032;-76
2022/02/16 00:26:08;;;;;;;5.75;4.72;;;3.10;99.90;;;;;;5030964;28;20471;-76
2022/02/16 00:28:34;;;;;;;5.82;4.35;;;3.10;99.90;;;;;;5025843;28;20021;-76
2022/02/16 00:31:00;;;;;;;7.07;4.47;;;3.10;99.90;;;;;;5030223;28;20084;-76
2022/02/16 00:33:25;;;;;;;5.85;4.15;;;3.20;99.90;;;;;;5032915;28;20041;-76
2022/02/16 00:35:51;;;;;;;5.32;4.53;;;3.10;99.90;;;;;;5023753;28;20057;-76
2022/02/16 00:38:17;;;;;;;5.50;4.40;;;3.20;99.90;;;;;;5024792;28;20021;-76
2022/02/16 00:40:42;;;;;;;5.10;4.18;;;3.20;99.90;;;;;;5032374;28;20041;-76
2022/02/16 00:43:08;;;;;;;9.07;3.88;;;3.20;99.90;;;;;;5024060;28;20518;-75
2022/02/16 00:45:34;;;;;;;6.43;4.10;;;3.20;99.90;;;;;;5014331;28;20506;-74
2022/02/16 00:48:00;;;;;;;4.93;3.75;;;3.10;99.90;;;;;;5023963;28;20018;-74
2022/02/16 00:50:26;;;;;;;5.85;3.88;;;3.10;99.90;;;;;;5027852;28;20030;-75
2022/02/16 00:52:51;;;;;;;3.78;3.47;;;3.10;99.90;;;;;;5024344;28;20029;-75
2022/02/16 00:55:17;;;;;;;5.28;3.88;;;3.10;99.90;;;;;;5024673;28;20030;-75
2022/02/16 00:57:42;;;;;;;4.97;3.55;;;3.00;99.90;;;;;;5021188;28;20028;-74
2022/02/16 01:00:09;;;;;;;5.25;3.88;;;3.00;99.90;;;;;;5029400;28;20021;-74
2022/02/16 01:02:35;;;;;;;6.25;3.95;;;3.00;99.90;;;;;;5019564;28;20045;-75
2022/02/16 01:05:00;;;;;;;5.03;3.42;;;3.00;99.90;;;;;;5019127;28;20026;-75
2022/02/16 01:07:26;;;;;;;6.38;3.35;;;3.00;99.90;;;;;;5024109;28;20037;-76
2022/02/16 01:09:51;;;;;;;6.22;3.65;;;3.10;99.90;;;;;;5024389;28;20510;-75
2022/02/16 01:12:17;;;;;;;4.78;3.75;;;3.10;99.90;;;;;;5020334;28;20444;-75
2022/02/16 01:14:43;;;;;;;5.18;3.70;;;3.20;99.90;;;;;;5019073;28;20034;-74
2022/02/16 01:17:09;;;;;;;5.28;3.33;;;3.00;99.90;;;;;;5059179;28;20487;-74
2022/02/16 01:19:34;;;;;;;3.90;3.50;;;3.10;99.90;;;;;;5017679;28;20484;-74
2022/02/16 01:22:00;;;;;;;4.22;3.40;;;3.10;99.90;;;;;;5031850;28;20117;-73
2022/02/16 01:24:25;;;;;;;6.43;3.63;;;3.10;99.90;;;;;;5016984;28;20033;-73
2022/02/16 01:26:51;;;;;;;4.47;3.53;;;3.00;99.90;;;;;;5012238;28;20454;-73
2022/02/16 01:29:16;;;;;;;5.57;3.60;;;3.20;99.90;;;;;;5026998;28;20491;-73
2022/02/16 01:31:42;;;;;;;5.35;3.67;;;3.10;99.90;;;;;;5022220;28;20053;-73
2022/02/16 01:34:08;;;;;;;5.57;3.50;;;3.10;99.90;;;;;;5013682;28;20030;-73
2022/02/16 01:36:34;;;;;;;5.43;3.67;;;3.20;99.90;;;;;;5030690;28;20032;-74
2022/02/16 01:39:00;;;;;;;4.65;3.58;;;3.20;99.90;;;;;;5017256;28;20392;-74
2022/02/16 01:41:26;;;;;;;5.78;3.70;;;3.20;99.90;;;;;;5031807;28;20119;-74
2022/02/16 01:43:53;;;;;;;4.07;3.50;;;3.30;99.90;;;;;;5018537;28;20515;-73
2022/02/16 01:46:19;;;;;;;3.85;3.17;;;3.20;99.90;;;;;;5023951;28;20018;-73
2022/02/16 01:48:45;;;;;;;4.35;3.08;;;3.20;99.90;;;;;;5025203;28;20475;-74
2022/02/16 01:51:12;;;;;;;4.85;3.28;;;3.20;99.90;;;;;;5031633;28;20043;-75
2022/02/16 01:53:39;;;;;;;4.15;3.50;;;3.20;99.90;;;;;;5018411;28;20105;-74
2022/02/16 01:56:05;;;;;;;4.95;2.90;;;3.20;99.90;;;;;;5031632;28;20026;-74
2022/02/16 01:58:34;;;;;;;4.05;3.03;;;3.20;99.90;;;;;;5032985;28;20025;-75
2022/02/16 02:01:01;;;;;;;8.75;3.55;;;3.20;99.90;;;;;;5035622;28;20026;-74
2022/02/16 02:03:27;;;;;;;4.13;3.50;;;3.10;99.90;;;;;;5020864;28;20054;-75
2022/02/16 02:05:52;;;;;;;6.95;3.25;;;3.30;99.90;;;;;;5027440;28;20510;-75
2022/02/16 02:08:22;;;;;;;4.03;3.15;;;3.20;99.90;;;;;;5029316;28;20049;-74
2022/02/16 02:10:48;;;;;;;5.18;3.30;;;3.20;99.90;;;;;;5022626;28;20026;-74
2022/02/16 02:13:17;;;;;;;4.50;2.95;;;3.20;99.90;;;;;;5022178;28;20030;-74
2022/02/16 02:15:43;;;;;;;4.32;3.00;;;3.30;99.90;;;;;;5062138;28;20021;-75
2022/02/16 02:18:14;;;;;;;5.72;3.03;;;3.20;99.90;;;;;;5033688;28;20033;-73
2022/02/16 02:20:40;;;;;;;4.68;3.45;;;3.20;99.90;;;;;;5023083;28;20048;-74
2022/02/16 02:23:07;;;;;;;6.55;3.33;;;3.20;99.90;;;;;;5020734;28;20391;-74
2022/02/16 02:25:44;;;;;;;4.13;3.10;;;3.20;99.90;;;;;;5034113;28;20022;-74
2022/02/16 02:28:10;;;;;;;5.38;3.20;;;3.20;99.90;;;;;;5023236;28;20437;-73
2022/02/16 02:30:36;;;;;;;5.97;3.10;;;3.10;99.90;;;;;;5035111;28;20021;-74
2022/02/16 02:33:01;;;;;;;3.92;3.38;;;3.10;99.90;;;;;;5018013;28;20488;-76
2022/02/16 02:35:27;;;;;;;4.35;3.00;;;3.10;99.90;;;;;;5024660;28;20367;-75
2022/02/16 02:37:53;;;;;;;4.30;3.03;;;3.10;99.90;;;;;;5021986;28;20017;-73
2022/02/16 02:40:18;;;;;;;6.22;3.30;;;3.10;99.90;;;;;;5023217;28;20442;-73
2022/02/16 02:42:44;;;;;;;6.22;3.22;;;3.10;99.90;;;;;;5032200;28;20038;-73
2022/02/16 02:45:10;;;;;;;3.45;2.72;;;3.10;99.90;;;;;;5024577;28;20547;-73
2022/02/16 02:47:36;;;;;;;5.00;3.05;;;3.10;99.90;;;;;;5032240;28;20084;-75
2022/02/16 02:50:06;;;;;;;4.00;3.25;;;3.00;99.90;;;;;;5034880;28;20025;-76
2022/02/16 02:52:32;;;;;;;4.15;3.03;;;3.00;99.90;;;;;;5034489;28;20030;-76
2022/02/16 02:54:58;;;;;;;4.82;3.47;;;3.00;99.90;;;;;;5034854;28;20033;-75
2022/02/16 02:57:23;;;;;;;4.50;3.10;;;3.10;99.90;;;;;;5021580;28;20060;-76
2022/02/16 02:59:49;;;;;;;5.85;3.45;;;3.00;99.90;;;;;;5021507;28;20030;-74
2022/02/16 03:02:14;;;;;;;5.47;3.40;;;3.10;99.90;;;;;;5026453;28;20499;-75
2022/02/16 03:04:40;;;;;;;5.68;3.42;;;3.00;99.90;;;;;;5026357;28;20754;-75
2022/02/16 03:07:05;;;;;;;4.25;3.05;;;3.00;99.90;;;;;;5029978;28;20030;-74
2022/02/16 03:09:31;;;;;;;4.90;3.60;;;2.90;99.90;;;;;;5023600;28;20022;-76
2022/02/16 03:11:56;;;;;;;4.43;3.50;;;2.90;99.90;;;;;;5016594;28;20022;-75
2022/02/16 03:14:22;;;;;;;4.55;3.40;;;3.00;99.90;;;;;;5025829;28;20499;-75
2022/02/16 03:16:47;;;;;;;3.70;2.90;;;2.90;99.90;;;;;;5052930;28;20061;-75
2022/02/16 03:19:13;;;;;;;5.30;3.47;;;2.90;99.90;;;;;;5023261;28;20153;-76
2022/02/16 03:21:38;;;;;;;4.47;3.10;;;2.90;99.90;;;;;;5027561;28;20073;-76
2022/02/16 03:24:07;;;;;;;4.47;3.42;;;2.90;99.90;;;;;;5025788;28;20547;-76
2022/02/16 03:26:33;;;;;;;4.30;3.22;;;2.80;99.90;;;;;;5029351;28;20064;-75
2022/02/16 03:28:59;;;;;;;4.63;3.30;;;2.80;99.90;;;;;;5024864;28;20021;-75
2022/02/16 03:31:24;;;;;;;5.22;3.30;;;2.90;99.90;;;;;;5019466;28;20070;-75
2022/02/16 03:33:50;;;;;;;4.20;3.03;;;2.80;99.90;;;;;;5020943;28;20120;-75
2022/02/16 03:36:15;;;;;;;3.47;2.95;;;2.80;99.90;;;;;;5018375;28;20033;-73
2022/02/16 03:38:41;;;;;;;3.90;2.90;;;2.90;99.90;;;;;;5033991;28;20091;-73
2022/02/16 03:41:07;;;;;;;3.85;3.30;;;2.80;99.90;;;;;;5020212;28;20026;-73
2022/02/16 03:43:32;;;;;;;5.90;2.83;;;3.00;99.90;;;;;;5022243;28;20026;-74
2022/02/16 03:45:58;;;;;;;4.18;3.15;;;2.90;99.90;;;;;;5026123;28;20515;-75
2022/02/16 03:48:23;;;;;;;5.28;3.00;;;2.90;99.90;;;;;;5029345;28;20064;-75
2022/02/16 03:50:49;;;;;;;4.75;2.95;;;2.90;99.90;;;;;;5031063;28;20017;-74
2022/02/16 03:53:16;;;;;;;4.90;3.10;;;3.00;99.90;;;;;;5041050;28;20025;-74
2022/02/16 03:55:42;;;;;;;4.63;2.83;;;2.90;99.90;;;;;;5020327;28;20017;-74
2022/02/16 03:58:07;;;;;;;4.78;2.92;;;2.90;99.90;;;;;;5032360;28;20018;-74
2022/02/16 04:00:33;;;;;;;5.03;3.15;;;2.90;99.90;;;;;;5020142;28;20029;-73
2022/02/16 04:02:58;;;;;;;6.38;3.00;;;2.80;99.90;;;;;;5022303;28;20117;-73
2022/02/16 04:05:24;;;;;;;4.00;2.80;;;2.90;99.90;;;;;;5027148;28;20473;-74
2022/02/16 04:07:49;;;;;;;6.03;3.25;;;2.80;99.90;;;;;;5024673;28;20487;-75
2022/02/16 04:10:15;;;;;;;5.68;5.07;;;2.90;99.90;;;;;;5051967;28;20017;-75
2022/02/16 04:12:41;;;;;;;5.30;2.97;;;2.90;99.90;;;;;;5022424;28;20041;-75
2022/02/16 04:15:06;;;;;;;5.60;2.90;;;3.00;99.90;;;;;;5025658;28;20030;-74
2022/02/16 04:17:32;;;;;;;5.38;3.40;;;2.90;99.90;;;;;;5024322;28;20033;-75
2022/02/16 04:19:57;;;;;;;6.32;3.35;;;2.90;99.90;;;;;;5019901;28;20094;-75
2022/02/16 04:22:23;;;;;;;4.93;3.40;;;2.90;99.90;;;;;;5022220;28;20472;-75
2022/02/16 04:24:48;;;;;;;4.93;2.92;;;2.90;99.90;;;;;;5026804;28;20140;-75
2022/02/16 04:27:14;;;;;;;4.03;2.80;;;2.90;99.90;;;;;;5022200;28;20592;-74
2022/02/16 04:29:39;;;;;;;5.25;2.88;;;2.90;99.90;;;;;;5019693;28;20032;-75
2022/02/16 04:32:05;;;;;;;4.50;2.97;;;2.90;99.90;;;;;;5023187;28;20034;-76
2022/02/16 04:34:32;;;;;;;3.95;2.88;;;2.90;99.90;;;;;;5025127;28;20033;-74
2022/02/16 04:36:58;;;;;;;4.32;2.85;;;3.00;99.90;;;;;;5022855;28;20026;-74
2022/02/16 04:39:23;;;;;;;4.05;2.88;;;2.80;99.90;;;;;;5015500;28;20123;-74
2022/02/16 04:41:49;;;;;;;4.25;3.20;;;2.90;99.90;;;;;;5022241;28;20052;-73
2022/02/16 04:44:14;;;;;;;4.60;4.15;;;2.90;99.90;;;;;;5019349;28;20083;-74
2022/02/16 04:46:40;;;;;;;3.75;3.17;;;2.90;99.90;;;;;;5023326;28;20073;-73
2022/02/16 04:49:05;;;;;;;3.88;2.78;;;2.90;99.90;;;;;;5027711;28;20526;-73
2022/02/16 04:51:30;;;;;;;4.82;3.22;;;2.90;99.90;;;;;;5032511;28;20391;-75
2022/02/16 04:53:56;;;;;;;4.88;2.80;;;2.90;99.90;;;;;;5019095;28;20021;-75
2022/02/16 04:56:21;;;;;;;6.25;3.50;;;2.90;99.90;;;;;;5026656;28;20100;-74
2022/02/16 04:58:47;;;;;;;5.88;3.30;;;2.90;99.90;;;;;;5031176;28;20029;-73
2022/02/16 05:01:14;;;;;;;5.43;3.45;;;3.00;99.90;;;;;;5064000;28;20053;-74
2022/02/16 05:03:39;;;;;;;6.68;3.75;;;2.90;99.90;;;;;;5050481;28;20033;-74
2022/02/16 05:06:05;;;;;;;4.80;3.58;;;2.90;99.90;;;;;;5022732;28;20399;-74
2022/02/16 05:08:31;;;;;;;8.25;3.97;;;2.90;99.90;;;;;;5028000;28;20021;-75
2022/02/16 05:10:56;;;;;;;6.07;4.03;;;2.90;99.90;;;;;;5022263;28;20111;-75
2022/02/16 05:13:22;;;;;;;5.57;3.83;;;2.90;99.90;;;;;;5025808;28;20030;-75
2022/02/16 05:15:47;;;;;;;5.38;3.88;;;2.80;99.90;;;;;;5020656;28;20033;-75
2022/02/16 05:18:13;;;;;;;7.88;5.22;;;2.90;99.90;;;;;;5019008;28;20037;-75
2022/02/16 05:20:38;;;;;;;7.78;4.40;;;2.80;99.90;;;;;;5021188;28;20120;-75
2022/02/16 05:23:04;;;;;;;5.40;3.65;;;2.90;99.90;;;;;;5025670;28;20415;-75
2022/02/16 05:25:30;;;;;;;6.85;4.32;;;2.90;99.90;;;;;;5020121;28;20014;-75
2022/02/16 05:27:55;;;;;;;7.72;4.32;;;3.00;99.90;;;;;;5029797;28;20025;-74
2022/02/16 05:30:21;;;;;;;22.77;15.07;;;2.90;99.90;;;;;;5020928;28;20043;-75
2022/02/16 05:32:47;;;;;;;12.63;7.13;;;2.90;99.90;;;;;;5029141;28;20025;-75
2022/02/16 05:35:12;;;;;;;7.30;3.58;;;2.90;99.90;;;;;;5019669;28;20025;-75
2022/02/16 05:37:39;;;;;;;5.93;3.92;;;3.10;99.90;;;;;;5016700;28;20030;-74
2022/02/16 05:40:05;;;;;;;5.53;3.47;;;3.00;99.90;;;;;;5019673;28;20040;-75
2022/02/16 05:42:31;;;;;;;7.32;3.60;;;2.90;99.90;;;;;;5018373;28;20095;-74
2022/02/16 05:44:56;;;;;;;5.25;3.60;;;3.00;99.90;;;;;;5022842;28;20468;-75
2022/02/16 05:47:22;;;;;;;7.63;4.60;;;3.00;99.90;;;;;;5025299;28;20026;-75
2022/02/16 05:49:48;;;;;;;6.13;4.25;;;3.00;99.90;;;;;;5020727;28;20022;-76
2022/02/16 05:52:13;;;;;;;6.22;4.68;;;3.00;99.90;;;;;;5026973;28;20029;-75
2022/02/16 05:54:39;;;;;;;6.00;4.55;;;2.90;99.90;;;;;;5021910;28;20021;-75
2022/02/16 05:57:06;;;;;;;7.25;4.80;;;2.90;99.90;;;;;;5028659;28;20030;-75
2022/02/16 05:59:31;;;;;;;8.80;5.15;;;3.00;99.90;;;;;;5020314;28;20038;-75
2022/02/16 06:02:03;;;;;;;8.82;4.57;;;2.90;99.90;;;;;;5018296;28;20017;-76
2022/02/16 06:04:30;;;;;;;5.75;4.20;;;3.00;99.90;;;;;;5057833;28;20030;-76
2022/02/16 06:06:55;;;;;;;5.30;4.03;;;2.90;99.90;;;;;;5026491;28;20627;-75
2022/02/16 06:09:21;;;;;;;5.88;4.18;;;2.90;99.90;;;;;;5020380;28;20053;-75
2022/02/16 06:11:46;;;;;;;5.53;4.50;;;2.90;99.90;;;;;;5014907;28;20057;-75
2022/02/16 06:14:12;;;;;;;8.13;4.40;;;2.90;99.90;;;;;;5018220;28;20109;-75
2022/02/16 06:16:37;;;;;;;6.47;4.68;;;2.90;99.90;;;;;;5021823;28;20026;-74
2022/02/16 06:19:03;;;;;;;10.30;6.07;;;3.00;99.90;;;;;;5020179;28;20045;-75
2022/02/16 06:21:28;;;;;;;9.70;5.55;;;3.10;99.90;;;;;;5017096;28;20029;-75
2022/02/16 06:23:54;;;;;;;5.95;4.80;;;3.00;99.90;;;;;;5019943;28;20030;-75
2022/02/16 06:26:19;;;;;;;8.73;4.53;;;3.10;99.90;;;;;;5028607;28;20056;-75
2022/02/16 06:28:45;;;;;;;6.25;4.50;;;3.00;99.90;;;;;;5021187;28;20026;-75
2022/02/16 06:31:10;;;;;;;5.53;4.35;;;3.00;99.90;;;;;;5024739;28;20033;-74
2022/02/16 06:33:36;;;;;;;7.00;4.65;;;3.00;99.90;;;;;;5021722;28;20468;-75
2022/02/16 06:36:01;;;;;;;5.93;4.68;;;3.00;99.90;;;;;;5016781;28;20486;-73
2022/02/16 06:38:28;;;;;;;6.32;4.72;;;3.10;99.90;;;;;;5031147;28;20030;-73
2022/02/16 06:40:54;;;;;;;7.45;4.80;;;3.10;99.90;;;;;;5029182;28;20399;-74
2022/02/16 06:43:19;;;;;;;8.48;4.88;;;3.20;99.90;;;;;;5022254;28;20018;-74
2022/02/16 06:45:45;;;;;;;7.03;4.65;;;3.10;99.90;;;;;;5020923;28;20030;-74
2022/02/16 06:48:10;;;;;;;5.68;3.95;;;3.20;99.90;;;;;;5032350;28;20099;-75
2022/02/16 06:50:36;;;;;;;7.80;4.43;;;3.10;99.90;;;;;;5034451;28;20097;-75
2022/02/16 06:53:01;;;;;;;6.55;4.40;;;3.10;99.90;;;;;;5034695;28;20109;-75
2022/02/16 06:55:27;;;;;;;6.18;4.57;;;3.10;99.90;;;;;;5032147;28;20053;-76
2022/02/16 06:57:52;;;;;;;6.07;4.55;;;3.20;99.90;;;;;;5034649;28;20037;-76
2022/02/16 07:00:18;;;;;;;7.78;4.32;;;3.10;99.90;;;;;;5030201;28;20021;-76
2022/02/16 07:02:48;;;;;;;6.13;4.47;;;3.20;99.90;;;;;;5034291;28;20030;-77
2022/02/16 07:05:14;;;;;;;8.52;4.65;;;3.20;99.90;;;;;;5034641;28;20442;-76
2022/02/16 07:07:40;;;;;;;6.15;4.30;;;3.20;99.90;;;;;;5029297;28;20018;-76
2022/02/16 07:10:07;;;;;;;7.22;4.53;;;3.20;99.90;;;;;;5034439;28;20113;-76
2022/02/16 07:12:32;;;;;;;7.65;5.30;;;3.30;99.90;;;;;;5028194;28;20032;-75
2022/02/16 07:14:58;;;;;;;7.53;4.60;;;3.30;99.90;;;;;;5022189;28;20112;-76
2022/02/16 07:17:24;;;;;;;8.65;5.72;;;3.30;99.90;;;;;;5034277;28;20060;-77
2022/02/16 07:19:50;;;;;;;9.65;5.60;;;3.30;99.90;;;;;;5027155;28;20034;-77
2022/02/16 07:22:15;;;;;;;12.25;7.40;;;3.30;99.90;;;;;;5026893;28;20471;-76
2022/02/16 07:24:41;;;;;;;12.57;6.50;;;3.30;99.90;;;;;;5030294;28;20029;-77
2022/02/16 07:27:06;;;;;;;7.10;4.57;;;3.30;99.90;;;;;;5029593;28;20029;-76
2022/02/16 07:29:32;;;;;;;13.32;8.13;;;3.30;99.90;;;;;;5030133;28;20022;-77
2022/02/16 07:31:57;;;;;;;25.45;16.30;;;3.40;99.90;;;;;;5029711;28;20048;-76
2022/02/16 07:34:31;;;;;;;4.75;4.30;;;3.50;99.90;;;;;;5027512;28;20115;-77
2022/02/16 07:37:00;;;;;;;8.38;4.70;;;3.40;99.90;;;;;;5060381;28;20032;-76
2022/02/16 07:39:27;;;;;;;5.63;4.18;;;3.40;99.90;;;;;;5027924;28;20049;-76
2022/02/16 07:41:54;;;;;;;7.95;3.97;;;3.40;99.90;;;;;;5031596;28;20072;-77
2022/02/16 07:44:19;;;;;;;4.90;3.70;;;3.50;99.90;;;;;;5033851;28;20013;-76
2022/02/16 07:46:45;;;;;;;6.35;3.70;;;3.40;99.90;;;;;;5027061;28;20511;-76
2022/02/16 07:49:10;;;;;;;6.22;3.72;;;3.50;99.90;;;;;;5031703;28;20025;-77
2022/02/16 07:51:36;;;;;;;5.57;3.63;;;3.70;99.90;;;;;;5033474;28;20503;-76
2022/02/16 07:54:02;;;;;;;4.63;3.67;;;3.50;99.90;;;;;;5032153;28;20026;-77
2022/02/16 07:56:28;;;;;;;6.07;4.10;;;3.50;99.90;;;;;;5032989;28;20035;-77
2022/02/16 07:58:53;;;;;;;7.68;4.32;;;3.60;99.90;;;;;;5027884;28;20026;-76
2022/02/16 08:01:18;;;;;;;6.30;4.13;;;3.60;99.90;;;;;;5025378;28;20139;-77
2022/02/16 08:03:44;;;;;;;6.57;3.95;;;3.60;99.90;;;;;;5030371;28;20042;-75
2022/02/16 08:06:10;;;;;;;4.40;3.30;;;3.90;99.90;;;;;;5032480;28;20079;-77
2022/02/16 08:08:36;;;;;;;8.18;3.85;;;3.70;99.90;;;;;;5032219;28;20028;-77
2022/02/16 08:11:02;;;;;;;4.43;3.35;;;3.70;99.90;;;;;;5029586;28;20033;-76
2022/02/16 08:13:27;;;;;;;6.65;3.97;;;3.70;99.90;;;;;;5023440;28;20489;-77
2022/02/16 08:15:53;;;;;;;5.93;4.07;;;3.80;99.90;;;;;;5030543;28;20028;-75
2022/02/16 08:18:18;;;;;;;6.35;3.38;;;3.90;99.90;;;;;;5026130;28;20503;-76
2022/02/16 08:20:44;;;;;;;5.90;4.03;;;3.90;99.90;;;;;;5033341;28;20057;-77
2022/02/16 08:23:11;;;;;;;5.82;4.47;;;3.90;99.90;;;;;;5015730;28;20026;-77
2022/02/16 08:25:37;;;;;;;5.35;3.45;;;3.90;99.90;;;;;;5032074;28;20080;-76
2022/02/16 08:28:03;;;;;;;4.97;3.28;;;3.90;99.90;;;;;;5032133;28;20485;-77
2022/02/16 08:30:29;;;;;;;4.93;3.00;;;3.90;99.90;;;;;;5031995;28;20026;-76
2022/02/16 08:32:55;;;;;;;4.78;3.30;;;3.90;99.90;;;;;;5014626;28;20389;-77
2022/02/16 08:35:20;;;;;;;4.00;3.25;;;3.90;99.90;;;;;;5025678;28;20029;-77
2022/02/16 08:37:46;;;;;;;7.25;3.33;;;3.90;99.90;;;;;;5026854;28;20037;-77
2022/02/16 08:40:12;;;;;;;3.67;3.30;;;3.90;99.90;;;;;;5032945;28;20120;-77
2022/02/16 08:42:39;;;;;;;4.07;2.95;;;4.00;99.90;;;;;;5030048;28;20053;-75
2022/02/16 08:45:05;;;;;;;4.00;2.80;;;4.10;99.90;;;;;;5031670;28;20030;-75
2022/02/16 08:47:31;;;;;;;4.53;3.25;;;4.10;99.90;;;;;;5027640;28;20024;-75
2022/02/16 08:49:56;;;;;;;4.53;2.95;;;4.10;99.90;;;;;;5025260;28;20022;-76
2022/02/16 08:52:22;;;;;;;5.35;3.38;;;4.10;99.90;;;;;;5024972;28;20037;-75
2022/02/16 08:54:48;;;;;;;5.18;3.40;;;4.20;99.90;;;;;;5020960;28;20052;-75
2022/02/16 08:57:13;;;;;;;5.35;3.47;;;4.20;99.90;;;;;;5026187;28;20431;-75
2022/02/16 08:59:39;;;;;;;6.22;3.80;;;4.20;99.90;;;;;;5022258;28;20029;-75
2022/02/16 09:02:05;;;;;;;5.40;3.20;;;4.30;99.90;;;;;;5024836;28;20402;-74
2022/02/16 09:04:31;;;;;;;3.88;3.47;;;4.40;99.90;;;;;;5025005;28;20029;-75
2022/02/16 09:09:43;;;;;;;5.75;3.42;;;4.50;99.90;;;;;;5023000;28;20031;-75
2022/02/16 09:12:09;;;;;;;4.00;3.13;;;4.50;99.90;;;;;;5024467;28;20057;-76
2022/02/16 09:14:36;;;;;;;4.38;3.58;;;4.50;99.90;;;;;;5027666;28;20025;-76
2022/02/16 09:17:04;;;;;;;5.15;3.65;;;4.50;99.90;;;;;;5029001;28;20049;-76
2022/02/16 09:19:32;;;;;;;8.65;3.80;;;4.50;99.90;;;;;;5025379;28;20116;-75
2022/02/16 09:21:57;;;;;;;7.18;3.50;;;4.50;99.90;;;;;;5049682;28;20502;-75
2022/02/16 09:24:23;;;;;;;6.20;3.35;;;4.50;99.90;;;;;;5029608;28;20033;-77
2022/02/16 09:26:50;;;;;;;5.18;3.30;;;4.60;99.90;;;;;;5028477;28;20022;-77
2022/02/16 09:29:20;;;;;;;3.75;3.08;;;4.60;99.90;;;;;;5031515;28;20042;-76
2022/02/16 09:31:48;;;;;;;4.22;3.35;;;4.80;99.90;;;;;;5028372;28;20033;-76
2022/02/16 09:34:14;;;;;;;4.38;3.00;;;4.80;99.90;;;;;;5024271;28;20021;-76
2022/02/16 09:36:39;;;;;;;4.85;2.90;;;5.10;99.90;;;;;;5025513;28;20037;-75
2022/02/16 09:39:05;;;;;;;3.88;3.03;;;5.00;99.90;;;;;;5019996;28;20025;-75
2022/02/16 09:41:32;;;;;;;4.40;3.05;;;5.00;99.90;;;;;;5020881;28;20034;-75
2022/02/16 09:43:58;;;;;;;5.28;3.30;;;5.00;99.90;;;;;;5026841;28;20056;-75
2022/02/16 09:46:24;;;;;;;4.75;3.05;;;5.10;99.90;;;;;;5042122;28;20107;-75
2022/02/16 09:48:50;;;;;;;4.40;3.60;;;5.10;99.90;;;;;;5033749;28;20022;-75
2022/02/16 09:51:16;;;;;;;4.43;3.80;;;5.10;99.90;;;;;;5026310;28;20021;-75
2022/02/16 09:53:42;;;;;;;4.13;2.65;;;5.20;99.90;;;;;;5024738;28;20030;-75
2022/02/16 09:56:08;;;;;;;5.97;3.45;;;5.30;99.90;;;;;;5023581;28;20029;-75
2022/02/16 09:58:33;;;;;;;3.50;2.80;;;5.30;99.90;;;;;;5022125;28;20255;-75
2022/02/16 10:01:08;;;;;;;4.93;3.03;;;5.30;99.90;;;;;;5020395;28;20080;-75
2022/02/16 10:03:35;;;;;;;3.72;2.33;;;5.50;99.90;;;;;;5020894;28;20499;-76
2022/02/16 10:06:01;;;;;;;3.63;2.40;;;5.50;99.90;;;;;;5026244;28;20101;-75
2022/02/16 10:08:41;;;;;;;3.40;2.40;;;5.50;99.90;;;;;;5024005;28;20029;-75
2022/02/16 10:11:08;;;;;;;2.55;2.20;;;5.50;99.90;;;;;;5024228;28;20379;-75
2022/02/16 10:13:34;;;;;;;2.80;1.85;;;5.50;99.90;;;;;;5019932;28;20022;-75
2022/02/16 10:16:00;;;;;;;2.20;2.00;;;5.40;99.90;;;;;;5025266;28;20124;-75
2022/02/16 10:18:27;;;;;;;2.83;2.00;;;5.50;99.90;;;;;;5024501;28;20037;-75
2022/02/16 10:21:05;;;;;;;4.88;1.75;;;5.50;99.90;;;;;;5025260;28;20072;-75
2022/02/16 10:23:45;;;;;;;2.22;1.73;;;5.60;99.90;;;;;;5026432;28;20426;-75
2022/02/16 10:26:12;;;;;;;2.10;1.90;;;5.60;99.90;;;;;;5032821;28;20022;-76
2022/02/16 10:28:47;;;;;;;2.30;1.80;;;5.60;99.90;;;;;;5033861;28;20056;-76
2022/02/16 10:31:15;;;;;;;3.40;1.70;;;5.60;99.90;;;;;;5033450;28;20032;-76
2022/02/16 10:33:43;;;;;;;3.70;2.53;;;5.70;99.90;;;;;;5034401;28;20399;-76
2022/02/16 10:36:09;;;;;;;3.60;2.60;;;5.70;99.90;;;;;;5030703;28;20022;-76
2022/02/16 10:38:58;;;;;;;3.63;2.90;;;5.60;99.90;;;;;;5038613;28;20029;-75
2022/02/16 10:41:30;;;;;;;6.78;4.30;;;5.60;99.90;;;;;;5035288;28;20032;-76
2022/02/16 10:43:57;;;;;;;8.60;4.93;;;5.60;99.90;;;;;;5048685;28;20026;-77
2022/02/16 10:46:25;;;;;;;4.82;3.72;;;5.70;99.90;;;;;;5037414;28;20025;-75
2022/02/16 10:49:09;;;;;;;2.78;2.20;;;5.70;99.90;;;;;;5036942;28;20026;-75
2022/02/16 10:51:35;;;;;;;3.15;1.98;;;5.70;99.90;;;;;;5051566;28;20029;-75
2022/02/16 10:54:30;;;;;;;3.08;1.90;;;5.70;99.90;;;;;;5032525;28;20108;-76
2022/02/16 10:56:55;;;;;;;3.47;1.40;;;5.80;99.90;;;;;;5021704;28;20037;-76
2022/02/16 10:59:21;;;;;;;2.10;1.63;;;5.80;99.90;;;;;;5041991;28;20218;-76
2022/02/16 11:01:47;;;;;;;2.95;1.70;;;5.90;99.90;;;;;;5031127;28;20061;-76
2022/02/16 11:04:14;;;;;;;3.03;1.58;;;5.90;99.90;;;;;;5030724;28;20102;-76
2022/02/16 11:06:48;;;;;;;2.33;1.83;;;6.00;99.90;;;;;;5033988;22;20038;-70
2022/02/16 11:09:17;;;;;;;2.75;1.48;;;6.00;99.90;;;;;;4993851;28;20535;-73
2022/02/16 11:11:44;;;;;;;2.75;1.90;;;6.00;99.90;;;;;;4994375;28;20033;-70
2022/02/16 11:14:10;;;;;;;2.95;1.98;;;6.20;99.90;;;;;;4994580;28;20027;-70
2022/02/16 11:16:37;;;;;;;2.22;1.90;;;6.10;99.90;;;;;;4988941;28;20190;-69
2022/02/16 11:19:19;;;;;;;2.35;1.73;;;6.10;99.90;;;;;;4983687;28;20034;-70
2022/02/16 11:22:09;;;;;;;3.17;1.92;;;6.20;99.90;;;;;;4971099;28;20203;-70
2022/02/16 11:24:42;;;;;;;2.15;1.70;;;6.20;99.90;;;;;;4981555;28;20155;-70
2022/02/16 11:27:26;;;;;;;2.33;1.88;;;6.20;99.90;;;;;;4976732;28;20031;-70
2022/02/16 11:29:52;;;;;;;3.25;2.47;;;6.20;99.90;;;;;;4973890;28;20023;-69
2022/02/16 11:32:21;;;;;;;2.38;1.63;;;6.20;99.90;;;;;;4989870;28;20031;-70
2022/02/16 11:35:09;;;;;;;2.67;2.10;;;6.20;99.90;;;;;;4971952;28;20034;-70
2022/02/16 11:37:38;;;;;;;3.00;1.77;;;6.30;99.90;;;;;;4976254;28;20027;-70
2022/02/16 11:40:05;;;;;;;2.72;2.30;;;6.40;99.90;;;;;;4982081;28;20019;-70
2022/02/16 11:42:49;;;;;;;3.03;2.13;;;6.40;99.90;;;;;;4986312;28;20727;-70
2022/02/16 11:45:20;;;;;;;3.70;1.50;;;6.40;99.90;;;;;;4990235;28;20054;-70
2022/02/16 11:47:45;;;;;;;1.40;1.08;;;6.40;99.90;;;;;;4972772;28;20099;-70
2022/02/16 11:50:14;;;;;;;1.55;1.45;;;6.40;99.90;;;;;;4988106;28;20489;-70
2022/02/16 11:52:40;;;;;;;2.30;1.70;;;6.40;99.90;;;;;;4984409;28;20031;-71
2022/02/16 11:55:26;;;;;;;1.75;1.33;;;6.40;99.90;;;;;;4976434;28;20042;-69
2022/02/16 11:58:16;;;;;;;1.58;1.30;;;6.40;99.90;;;;;;4980031;28;20121;-70
2022/02/16 12:00:50;;;;;;;3.00;1.50;;;6.40;99.90;;;;;;4967625;28;20031;-70
2022/02/16 12:03:20;;;;;;;1.90;1.70;;;6.40;99.90;;;;;;4988450;28;20023;-70
2022/02/16 12:06:07;;;;;;;1.45;1.20;;;6.40;99.90;;;;;;4977153;28;20443;-70
2022/02/16 12:08:42;;;;;;;4.53;1.63;;;6.40;99.90;;;;;;4976085;28;20035;-70
2022/02/16 12:11:19;;;;;;;1.98;1.77;;;6.40;99.90;;;;;;4988292;28;20801;-70
2022/02/16 12:13:51;;;;;;;3.85;2.83;;;6.40;99.90;;;;;;4971067;28;20027;-70
2022/02/16 12:16:20;;;;;;;3.40;2.10;;;6.50;99.90;;;;;;4982428;28;20388;-70
2022/02/16 12:18:49;;;;;;;3.17;1.85;;;6.60;99.90;;;;;;4974551;28;20037;-70
2022/02/16 12:21:22;;;;;;;1.73;1.40;;;6.60;99.90;;;;;;4974129;28;20031;-70
2022/02/16 12:23:47;;;;;;;2.25;1.85;;;6.70;99.90;;;;;;4974524;28;20150;-69
2022/02/16 12:26:17;;;;;;;4.85;2.35;;;6.70;99.90;;;;;;4974217;28;20070;-70
2022/02/16 12:28:51;;;;;;;3.60;2.40;;;6.70;99.90;;;;;;4965312;28;20031;-70
2022/02/16 12:31:18;;;;;;;5.75;4.13;;;6.70;99.90;;;;;;4971067;28;20045;-70
2022/02/16 12:33:58;;;;;;;3.33;2.83;;;6.60;99.90;;;;;;4963874;28;20038;-70
2022/02/16 12:36:25;;;;;;;2.75;2.40;;;6.70;99.90;;;;;;4954832;29;20530;-71
2022/02/16 12:38:54;;;;;;;2.22;2.00;;;6.70;99.90;;;;;;4969589;28;20028;-70
2022/02/16 12:41:20;;;;;;;4.93;4.13;;;6.60;99.90;;;;;;4982222;28;20024;-70
2022/02/16 12:43:56;;;;;;;8.02;5.72;;;6.60;99.90;;;;;;4954695;28;20031;-70
2022/02/16 12:46:25;;;;;;;4.87;4.10;;;6.60;99.90;;;;;;4962256;28;20038;-70
2022/02/16 12:48:51;;;;;;;7.30;5.00;;;6.60;99.90;;;;;;4974042;28;20765;-71
2022/02/16 12:51:44;;;;;;;3.85;3.45;;;6.60;99.90;;;;;;4973676;28;20027;-71
2022/02/16 12:54:13;;;;;;;3.55;3.25;;;6.60;99.90;;;;;;4973500;28;20042;-70
2022/02/16 12:56:42;;;;;;;3.72;3.22;;;6.60;99.90;;;;;;4981907;28;20054;-70
2022/02/16 12:59:22;;;;;;;2.67;2.42;;;6.50;99.90;;;;;;4979208;28;20031;-69
2022/02/16 13:01:50;;;;;;;3.22;2.65;;;6.60;99.90;;;;;;4988304;28;20035;-71